createdAt,value
2023-05-15T00:02:29.976Z,98878.29
2023-05-15T00:05:31.828Z,98871.43
2023-05-15T00:08:33.376Z,98866.67
2023-05-15T00:11:34.974Z,98862.48
2023-05-15T00:14:36.694Z,98855.36
2023-05-15T00:17:38.328Z,98848.39
2023-05-15T00:20:40.038Z,98850.00
2023-05-15T00:23:41.741Z,98847.45
2023-05-15T00:26:43.472Z,98845.40
2023-05-15T00:29:45.106Z,98844.02
2023-05-15T00:32:46.849Z,98841.88
2023-05-15T00:35:48.612Z,98837.23
2023-05-15T00:38:50.242Z,98837.66
2023-05-15T00:41:52.333Z,98828.76
2023-05-15T00:44:54.394Z,98824.11
2023-05-15T00:47:57.807Z,98819.94
2023-05-15T00:50:59.819Z,98812.57
2023-05-15T00:54:01.825Z,98807.42
2023-05-15T00:57:05.514Z,98802.41
2023-05-15T01:00:07.992Z,98801.79
2023-05-15T01:03:09.837Z,98800.79
2023-05-15T01:06:12.177Z,98787.94
2023-05-15T01:09:14.397Z,98780.97
2023-05-15T01:12:16.965Z,98778.39
2023-05-15T01:15:18.656Z,98772.58
2023-05-15T01:18:20.298Z,98775.86
2023-05-15T01:21:37.197Z,98774.02
2023-05-15T01:25:07.876Z,98771.31
2023-05-15T01:28:12.438Z,98782.11
2023-05-15T01:31:19.787Z,98791.09
2023-05-15T01:34:24.070Z,98792.61
2023-05-15T01:37:27.049Z,98783.21
2023-05-15T01:40:29.009Z,98771.12
2023-05-15T01:43:32.162Z,98766.98
2023-05-15T01:46:36.797Z,98764.59
2023-05-15T01:49:38.594Z,98765.48
2023-05-15T01:52:43.079Z,98758.02
2023-05-15T01:55:45.034Z,98753.21
2023-05-15T01:58:47.113Z,98751.74
2023-05-15T02:01:50.568Z,98744.98
2023-05-15T02:04:52.650Z,98740.20
2023-05-15T02:07:54.798Z,98738.27
2023-05-15T02:11:00.194Z,98733.74
2023-05-15T02:14:01.924Z,98732.40
2023-05-15T02:17:03.596Z,98728.28
2023-05-15T02:20:05.903Z,98725.27
2023-05-15T02:23:07.408Z,98722.14
2023-05-15T02:26:09.142Z,98717.34
2023-05-15T02:29:21.245Z,98709.27
2023-05-15T02:32:41.205Z,98702.44
2023-05-15T02:35:53.054Z,98693.41
2023-05-15T02:38:55.491Z,98690.04
2023-05-15T02:41:57.737Z,98685.64
2023-05-15T02:45:00.168Z,98685.10
2023-05-15T02:48:02.815Z,98681.65
2023-05-15T02:51:04.744Z,98675.89
2023-05-15T02:54:06.350Z,98672.40
2023-05-15T02:57:07.926Z,98675.31
2023-05-15T03:00:10.353Z,98676.66
2023-05-15T03:03:11.888Z,98672.61
2023-05-15T03:06:13.437Z,98668.02
2023-05-15T03:09:14.984Z,98667.70
2023-05-15T03:12:16.656Z,98663.73
2023-05-15T03:15:18.325Z,98662.95
2023-05-15T03:18:20.826Z,98659.30
2023-05-15T03:21:22.436Z,98650.45
2023-05-15T03:24:24.066Z,98652.31
2023-05-15T03:27:25.706Z,98649.77
2023-05-15T03:30:27.375Z,98648.41
2023-05-15T03:33:29.093Z,98648.72
2023-05-15T03:36:30.833Z,98654.54
2023-05-15T03:39:32.328Z,98654.95
2023-05-15T03:42:33.832Z,98653.65
2023-05-15T03:45:36.193Z,98651.34
2023-05-15T03:48:37.745Z,98649.94
2023-05-15T03:51:39.463Z,98645.09
2023-05-15T03:54:42.284Z,98644.41
2023-05-15T03:57:43.943Z,98639.67
2023-05-15T04:00:45.563Z,98632.38
2023-05-15T04:03:47.195Z,98626.96
2023-05-15T04:06:49.095Z,98620.38
2023-05-15T04:09:50.760Z,98622.27
2023-05-15T04:12:52.697Z,98617.55
2023-05-15T04:15:54.353Z,98614.70
2023-05-15T04:18:56.191Z,98609.55
2023-05-15T04:21:57.881Z,98609.25
2023-05-15T04:24:59.483Z,98609.05
2023-05-15T04:28:01.302Z,98608.59
2023-05-15T04:31:02.878Z,98603.26
2023-05-15T04:34:04.532Z,98594.67
2023-05-15T04:37:06.117Z,98585.89
2023-05-15T04:40:08.449Z,98578.60
2023-05-15T04:43:10.177Z,98575.55
2023-05-15T04:46:11.821Z,98565.25
2023-05-15T04:49:13.415Z,98563.83
2023-05-15T04:52:15.211Z,98561.92
2023-05-15T04:55:16.887Z,98560.86
2023-05-15T04:58:18.471Z,98564.59
2023-05-15T05:01:20.329Z,98562.04
2023-05-15T05:04:22.061Z,98570.01
2023-05-15T05:07:26.656Z,98575.39
2023-05-15T05:10:28.314Z,98579.55
2023-05-15T05:13:29.839Z,98574.05
2023-05-15T05:16:31.513Z,98564.38
2023-05-15T05:19:33.150Z,98562.86
2023-05-15T05:22:34.735Z,98550.13
2023-05-15T05:25:36.330Z,98547.02
2023-05-15T05:31:25.032Z,98554.17
2023-05-15T05:34:26.742Z,98555.15
2023-05-15T05:37:28.365Z,98577.35
2023-05-15T05:40:30.407Z,98584.02
2023-05-15T05:43:31.986Z,98581.95
2023-05-15T05:46:33.648Z,98591.51
2023-05-15T05:49:35.383Z,98592.88
2023-05-15T05:52:37.234Z,98594.61
2023-05-15T05:55:38.855Z,98584.06
2023-05-15T05:58:40.521Z,98573.20
2023-05-15T06:01:42.218Z,98559.05
2023-05-15T06:04:43.934Z,98556.71
2023-05-15T06:07:45.691Z,98558.30
2023-05-15T06:10:47.243Z,98552.40
2023-05-15T06:13:48.817Z,98548.45
2023-05-15T06:16:53.596Z,98536.23
2023-05-15T06:19:55.260Z,98522.96
2023-05-15T06:22:56.990Z,98509.21
2023-05-15T06:25:58.660Z,98507.13
2023-05-15T06:29:00.331Z,98507.32
2023-05-15T06:32:02.019Z,98505.56
2023-05-15T06:35:04.098Z,98504.13
2023-05-15T06:38:05.708Z,98499.07
2023-05-15T06:41:07.287Z,98500.91
2023-05-15T06:44:08.924Z,98499.81
2023-05-15T06:47:10.523Z,98493.02
2023-05-15T06:50:12.181Z,98485.70
2023-05-15T06:53:14.606Z,98481.90
2023-05-15T06:56:16.763Z,98481.64
2023-05-15T06:59:18.396Z,98482.67
2023-05-15T07:02:19.937Z,98480.91
2023-05-15T07:05:21.616Z,98482.01
2023-05-15T07:08:23.145Z,98482.08
2023-05-15T07:11:25.171Z,98480.33
2023-05-15T07:14:26.802Z,98478.74
2023-05-15T07:17:28.578Z,98474.55
2023-05-15T07:20:32.370Z,98477.80
2023-05-15T07:23:35.891Z,98483.60
2023-05-15T07:26:46.917Z,98486.30
2023-05-15T07:29:58.991Z,98484.73
2023-05-15T07:33:00.642Z,98483.45
2023-05-15T07:36:02.707Z,98488.34
2023-05-15T07:39:04.368Z,98485.88
2023-05-15T07:42:06.333Z,98488.92
2023-05-15T07:45:08.478Z,98494.82
2023-05-15T07:48:17.639Z,98494.95
2023-05-15T07:51:19.186Z,98495.48
2023-05-15T07:54:20.862Z,98499.76
2023-05-15T07:57:22.477Z,98495.32
2023-05-15T08:00:24.183Z,98495.31
2023-05-15T08:03:26.089Z,98492.41
2023-05-15T08:06:27.942Z,98498.98
2023-05-15T08:09:29.514Z,98490.27
2023-05-15T08:12:31.142Z,98488.04
2023-05-15T08:15:32.987Z,98496.25
2023-05-15T08:18:34.638Z,98497.82
2023-05-15T08:21:36.405Z,98497.34
2023-05-15T08:24:39.174Z,98499.80
2023-05-15T08:27:40.938Z,98497.66
2023-05-15T08:30:42.604Z,98487.71
2023-05-15T08:33:44.244Z,98483.92
2023-05-15T08:36:45.854Z,98486.84
2023-05-15T08:39:47.532Z,98488.66
2023-05-15T08:42:55.178Z,98492.95
2023-05-15T08:45:56.989Z,98496.79
2023-05-15T08:48:59.476Z,98500.75
2023-05-15T08:52:01.078Z,98498.40
2023-05-15T08:55:03.396Z,98504.23
2023-05-15T08:58:05.016Z,98500.84
2023-05-15T09:01:07.113Z,98505.67
2023-05-15T09:04:09.193Z,98505.94
2023-05-15T09:07:11.608Z,98510.22
2023-05-15T09:10:14.118Z,98520.49
2023-05-15T09:13:15.699Z,98530.41
2023-05-15T09:16:17.392Z,98531.91
2023-05-15T09:19:19.910Z,98537.61
2023-05-15T09:22:21.523Z,98533.75
2023-05-15T09:25:40.548Z,98528.83
2023-05-15T09:28:42.274Z,98517.23
2023-05-15T09:31:48.635Z,98510.23
2023-05-15T09:34:50.402Z,98510.48
2023-05-15T09:37:58.434Z,98515.83
2023-05-15T09:41:05.196Z,98514.11
2023-05-15T09:44:20.589Z,98514.31
2023-05-15T09:47:29.605Z,98523.34
2023-05-15T09:50:34.691Z,98531.40
2023-05-15T09:53:36.266Z,98535.42
2023-05-15T09:56:37.907Z,98535.59
2023-05-15T09:59:47.561Z,98529.56
2023-05-15T10:02:49.277Z,98529.00
2023-05-15T10:05:50.979Z,98529.10
2023-05-15T10:08:55.692Z,98536.70
2023-05-15T10:11:57.412Z,98534.94
2023-05-15T10:14:59.858Z,98533.88
2023-05-15T10:18:04.192Z,98528.61
2023-05-15T10:21:07.992Z,98531.92
2023-05-15T10:24:09.584Z,98532.13
2023-05-15T10:27:12.097Z,98537.86
2023-05-15T10:30:16.237Z,98543.70
2023-05-15T10:33:19.655Z,98540.83
2023-05-15T10:36:21.414Z,98537.25
2023-05-15T10:39:23.153Z,98533.46
2023-05-15T10:42:26.718Z,98535.86
2023-05-15T10:45:29.551Z,98536.92
2023-05-15T10:48:31.302Z,98539.76
2023-05-15T10:51:33.554Z,98550.85
2023-05-15T10:54:35.461Z,98539.61
2023-05-15T10:57:38.065Z,98535.01
2023-05-15T11:00:44.741Z,98538.71
2023-05-15T11:03:49.986Z,98542.27
2023-05-15T11:07:11.709Z,98545.16
2023-05-15T11:10:36.576Z,98542.43
2023-05-15T11:14:06.695Z,98549.52
2023-05-15T11:17:12.382Z,98552.03
2023-05-15T11:20:14.200Z,98558.48
2023-05-15T11:23:15.758Z,98551.52
2023-05-15T11:26:32.680Z,98545.54
2023-05-15T11:29:34.271Z,98543.73
2023-05-15T11:32:44.642Z,98544.88
2023-05-15T11:35:57.963Z,98543.73
2023-05-15T11:38:59.700Z,98540.43
2023-05-15T11:42:11.171Z,98531.66
2023-05-15T11:45:12.755Z,98531.32
2023-05-15T11:48:16.509Z,98534.83
2023-05-15T11:51:20.019Z,98538.74
2023-05-15T11:54:21.795Z,98539.31
2023-05-15T11:57:23.819Z,98542.80
2023-05-15T12:00:25.777Z,98546.56
2023-05-15T12:03:33.128Z,98537.68
2023-05-15T12:06:34.794Z,98527.52
2023-05-15T12:09:36.620Z,98522.98
2023-05-15T12:12:45.334Z,98513.77
2023-05-15T12:15:47.372Z,98519.29
2023-05-15T12:18:50.009Z,98513.27
2023-05-15T12:21:51.633Z,98508.45
2023-05-15T12:24:53.469Z,98515.56
2023-05-15T12:27:55.337Z,98511.69
2023-05-15T12:30:57.381Z,98518.48
2023-05-15T12:33:59.376Z,98527.04
2023-05-15T12:37:00.935Z,98527.13
2023-05-15T12:40:04.551Z,98529.35
2023-05-15T12:43:07.629Z,98534.10
2023-05-15T12:46:09.987Z,98525.26
2023-05-15T12:49:12.039Z,98520.48
2023-05-15T12:52:15.452Z,98507.48
2023-05-15T12:55:18.219Z,98496.23
2023-05-15T12:58:20.002Z,98493.17
2023-05-15T13:01:21.630Z,98499.59
2023-05-15T13:04:23.828Z,98496.70
2023-05-15T13:07:25.405Z,98499.50
2023-05-15T13:10:27.515Z,98486.59
2023-05-15T13:13:46.676Z,98484.48
2023-05-15T13:16:48.315Z,98489.98
2023-05-15T13:19:49.918Z,98498.22
2023-05-15T13:22:51.647Z,98498.49
2023-05-15T13:25:53.218Z,98487.98
2023-05-15T13:28:54.876Z,98478.55
2023-05-15T13:31:56.434Z,98479.88
2023-05-15T13:34:58.318Z,98472.84
2023-05-15T13:37:59.902Z,98471.08
2023-05-15T13:41:01.608Z,98477.13
2023-05-15T13:44:03.245Z,98478.94
2023-05-15T13:47:05.119Z,98478.98
2023-05-15T13:50:08.751Z,98480.11
2023-05-15T13:53:10.265Z,98474.95
2023-05-15T13:56:12.306Z,98473.39
2023-05-15T13:59:13.850Z,98471.33
2023-05-15T14:02:15.622Z,98474.66
2023-05-15T14:05:17.346Z,98478.80
2023-05-15T14:08:18.923Z,98480.95
2023-05-15T14:11:20.548Z,98482.07
2023-05-15T14:14:22.130Z,98479.98
2023-05-15T14:17:23.656Z,98476.25
2023-05-15T14:20:25.481Z,98467.13
2023-05-15T14:23:27.221Z,98465.63
2023-05-15T14:26:28.912Z,98467.86
2023-05-15T14:29:30.494Z,98462.98
2023-05-15T14:32:32.309Z,98460.44
2023-05-15T14:35:34.172Z,98468.00
2023-05-15T14:38:37.533Z,98468.95
2023-05-15T14:41:39.090Z,98467.52
2023-05-15T14:44:40.710Z,98469.48
2023-05-15T14:47:42.313Z,98472.10
2023-05-15T14:50:43.959Z,98473.23
2023-05-15T14:53:45.581Z,98477.53
2023-05-15T14:56:48.452Z,98486.83
2023-05-15T14:59:50.058Z,98485.20
2023-05-15T15:02:51.725Z,98513.86
2023-05-15T15:05:53.662Z,98517.33
2023-05-15T15:08:55.206Z,98500.63
2023-05-15T15:11:56.852Z,98499.73
2023-05-15T15:14:58.488Z,98505.44
2023-05-15T15:18:00.671Z,98505.16
2023-05-15T15:21:02.304Z,98509.33
2023-05-15T15:24:04.025Z,98503.02
2023-05-15T15:27:05.744Z,98493.80
2023-05-15T15:30:08.912Z,98493.45
2023-05-15T15:33:10.564Z,98490.46
2023-05-15T15:36:12.155Z,98490.16
2023-05-15T15:39:13.713Z,98494.91
2023-05-15T15:42:15.275Z,98501.87
2023-05-15T15:45:16.849Z,98511.46
2023-05-15T15:48:18.605Z,98511.65
2023-05-15T15:51:20.230Z,98509.30
2023-05-15T15:54:21.962Z,98511.86
2023-05-15T15:57:23.702Z,98534.11
2023-05-15T16:00:25.467Z,98548.81
2023-05-15T16:03:27.555Z,98553.10
2023-05-15T16:06:29.226Z,98553.59
2023-05-15T16:09:31.502Z,98549.00
2023-05-15T16:12:33.153Z,98543.14
2023-05-15T16:15:34.808Z,98540.61
2023-05-15T16:18:36.357Z,98543.52
2023-05-15T16:21:37.961Z,98551.39
2023-05-15T16:24:39.688Z,98550.74
2023-05-15T16:27:41.359Z,98539.16
2023-05-15T16:33:47.589Z,98540.22
2023-05-15T16:36:49.150Z,98537.36
2023-05-15T16:39:50.726Z,98535.23
2023-05-15T16:42:52.265Z,98539.92
2023-05-15T16:45:53.923Z,98548.39
2023-05-15T16:48:55.667Z,98554.56
2023-05-15T16:51:57.254Z,98552.19
2023-05-15T16:54:58.815Z,98556.68
2023-05-15T16:58:00.438Z,98555.23
2023-05-15T17:01:02.100Z,98560.11
2023-05-15T17:04:04.000Z,98562.20
2023-05-15T17:07:06.132Z,98567.57
2023-05-15T17:10:08.590Z,98568.94
2023-05-15T17:13:10.206Z,98573.98
2023-05-15T17:16:12.212Z,98569.67
2023-05-15T17:19:13.829Z,98577.38
2023-05-15T17:22:15.542Z,98581.81
2023-05-15T17:25:17.082Z,98589.15
2023-05-15T17:28:18.973Z,98590.34
2023-05-15T17:31:21.606Z,98593.34
2023-05-15T17:34:23.282Z,98593.14
2023-05-15T17:37:24.823Z,98594.01
2023-05-15T17:40:26.655Z,98601.92
2023-05-15T17:43:28.454Z,98604.09
2023-05-15T17:46:30.250Z,98605.35
2023-05-15T17:49:31.932Z,98611.23
2023-05-15T17:52:35.469Z,98610.83
2023-05-15T17:55:37.138Z,98625.34
2023-05-15T17:58:38.906Z,98626.50
2023-05-15T18:01:40.454Z,98627.30
2023-05-15T18:04:42.119Z,98629.68
2023-05-15T18:07:43.892Z,98626.66
2023-05-15T18:10:45.997Z,98629.16
2023-05-15T18:13:47.571Z,98637.05
2023-05-15T18:16:49.394Z,98637.92
2023-05-15T18:19:50.928Z,98644.48
2023-05-15T18:22:52.888Z,98652.16
2023-05-15T18:25:54.506Z,98660.50
2023-05-15T18:28:56.011Z,98664.97
2023-05-15T18:31:57.715Z,98673.27
2023-05-15T18:34:59.702Z,98676.48
2023-05-15T18:38:01.490Z,98675.55
2023-05-15T18:41:03.205Z,98677.29
2023-05-15T18:44:04.896Z,98680.63
2023-05-15T18:47:06.770Z,98683.24
2023-05-15T18:50:08.884Z,98683.17
2023-05-15T18:53:10.490Z,98690.65
2023-05-15T18:56:12.039Z,98690.48
2023-05-15T18:59:13.837Z,98695.83
2023-05-15T19:02:15.581Z,98699.01
2023-05-15T19:05:17.257Z,98695.44
2023-05-15T19:08:18.995Z,98697.70
2023-05-15T19:11:20.617Z,98695.35
2023-05-15T19:14:22.285Z,98703.25
2023-05-15T19:17:23.900Z,98704.34
2023-05-15T19:20:25.757Z,98708.76
2023-05-15T19:23:27.473Z,98720.92
2023-05-15T19:26:29.196Z,98730.09
2023-05-15T19:29:30.868Z,98725.91
2023-05-15T19:32:32.708Z,98727.33
2023-05-15T19:35:37.784Z,98728.98
2023-05-15T19:38:39.618Z,98737.30
2023-05-15T19:41:41.191Z,98741.58
2023-05-15T19:44:42.912Z,98742.14
2023-05-15T19:47:44.461Z,98745.63
2023-05-15T19:50:46.220Z,98750.29
2023-05-15T19:53:47.925Z,98753.35
2023-05-15T19:56:49.660Z,98753.47
2023-05-15T19:59:51.235Z,98759.08
2023-05-15T20:02:53.105Z,98757.41
2023-05-15T20:05:54.789Z,98759.91
2023-05-15T20:08:56.461Z,98764.00
2023-05-15T20:11:58.192Z,98761.52
2023-05-15T20:14:59.955Z,98767.23
2023-05-15T20:18:01.681Z,98769.67
2023-05-15T20:21:03.618Z,98765.90
2023-05-15T20:24:05.477Z,98767.33
2023-05-15T20:27:08.353Z,98764.19
2023-05-15T20:30:10.607Z,98765.72
2023-05-15T20:33:12.293Z,98763.59
2023-05-15T20:36:13.872Z,98767.17
2023-05-15T20:39:15.632Z,98769.66
2023-05-15T20:42:17.286Z,98774.66
2023-05-15T20:45:19.489Z,98776.16
2023-05-15T20:48:21.254Z,98777.46
2023-05-15T20:51:22.832Z,98778.92
2023-05-15T20:54:24.428Z,98780.02
2023-05-15T20:57:26.220Z,98780.16
2023-05-15T21:00:28.342Z,98781.02
2023-05-15T21:03:30.389Z,98785.78
2023-05-15T21:06:32.074Z,98789.89
2023-05-15T21:09:33.722Z,98796.46
2023-05-15T21:12:35.298Z,98798.29
2023-05-15T21:15:37.017Z,98799.23
2023-05-15T21:18:38.870Z,98803.77
2023-05-15T21:21:40.698Z,98807.84
2023-05-15T21:24:42.430Z,98807.59
2023-05-15T21:27:44.344Z,98813.58
2023-05-15T21:30:46.057Z,98807.25
2023-05-15T21:33:47.674Z,98810.72
2023-05-15T21:36:49.175Z,98813.58
2023-05-15T21:39:50.886Z,98814.91
2023-05-15T21:42:52.440Z,98815.35
2023-05-15T21:45:54.576Z,98819.11
2023-05-15T21:48:57.932Z,98818.92
2023-05-15T21:51:59.624Z,98819.75
2023-05-15T21:55:01.340Z,98817.98
2023-05-15T21:58:03.070Z,98817.20
2023-05-15T22:01:04.652Z,98814.24
2023-05-15T22:04:06.425Z,98805.89
2023-05-15T22:07:08.062Z,98804.09
2023-05-15T22:10:09.880Z,98805.14
2023-05-15T22:13:11.414Z,98804.73
2023-05-15T22:16:12.976Z,98807.35
2023-05-15T22:19:31.451Z,98814.04
2023-05-15T22:22:35.738Z,98816.71
2023-05-15T22:25:37.352Z,98820.53
2023-05-15T22:28:39.105Z,98820.85
2023-05-15T22:31:40.694Z,98820.79
2023-05-15T22:34:42.338Z,98819.73
2023-05-15T22:37:44.082Z,98829.23
2023-05-15T22:40:50.606Z,98834.09
2023-05-15T22:43:52.178Z,98835.98
2023-05-15T22:46:53.791Z,98836.48
2023-05-15T22:49:55.584Z,98835.47
2023-05-15T22:52:57.219Z,98841.57
2023-05-15T22:55:58.814Z,98843.52
2023-05-15T22:59:00.456Z,98846.09
2023-05-15T23:02:02.241Z,98840.78
2023-05-15T23:05:04.252Z,98841.34
2023-05-15T23:08:06.050Z,98839.71
2023-05-15T23:11:07.689Z,98845.81
2023-05-15T23:14:09.412Z,98845.94
2023-05-15T23:17:11.043Z,98845.21
2023-05-15T23:20:12.583Z,98843.98
2023-05-15T23:23:14.212Z,98841.86
2023-05-15T23:26:15.980Z,98841.86
2023-05-15T23:29:17.618Z,98841.60
2023-05-15T23:32:19.449Z,98842.27
2023-05-15T23:35:21.217Z,98845.63
2023-05-15T23:38:22.817Z,98844.25
2023-05-15T23:41:24.355Z,98843.61
2023-05-15T23:44:25.998Z,98843.44
2023-05-15T23:47:27.732Z,98839.38
2023-05-15T23:50:29.597Z,98848.12
2023-05-15T23:53:31.285Z,98857.20
2023-05-15T23:56:32.902Z,98858.95
2023-05-15T23:59:34.563Z,98855.14
